createdAt,value
2017-11-22T00:00:15.686Z,7.57
2017-11-22T00:02:43.223Z,6.18
2017-11-22T00:05:10.749Z,7.57
2017-11-22T00:07:38.264Z,7.62
2017-11-22T00:10:06.070Z,7.30
2017-11-22T00:12:34.452Z,6.68
2017-11-22T00:15:01.961Z,6.78
2017-11-22T00:17:29.518Z,6.62
2017-11-22T00:19:57.030Z,6.90
2017-11-22T00:22:24.539Z,6.70
2017-11-22T00:24:52.247Z,6.95
2017-11-22T00:27:19.805Z,6.60
2017-11-22T00:29:47.363Z,7.40
2017-11-22T00:32:14.910Z,8.68
2017-11-22T00:34:42.481Z,6.55
2017-11-22T00:37:09.992Z,6.75
2017-11-22T00:39:37.532Z,5.68
2017-11-22T00:42:05.047Z,7.28
2017-11-22T00:44:32.615Z,5.60
2017-11-22T00:47:00.174Z,5.93
2017-11-22T00:49:27.735Z,6.05
2017-11-22T00:51:55.309Z,5.60
2017-11-22T00:54:23.031Z,5.47
2017-11-22T00:56:50.621Z,5.50
2017-11-22T00:59:18.175Z,6.05
2017-11-22T01:01:45.914Z,6.43
2017-11-22T01:04:13.423Z,5.95
2017-11-22T01:06:40.938Z,5.78
2017-11-22T01:09:08.615Z,6.53
2017-11-22T01:11:36.196Z,5.57
2017-11-22T01:14:03.708Z,6.00
2017-11-22T01:16:31.471Z,6.12
2017-11-22T01:18:59.157Z,4.85
2017-11-22T01:21:26.668Z,6.20
2017-11-22T01:23:54.481Z,4.85
2017-11-22T01:26:21.996Z,5.40
2017-11-22T01:28:49.513Z,5.20
2017-11-22T01:31:17.260Z,5.20
2017-11-22T01:33:44.768Z,4.53
2017-11-22T01:36:12.301Z,5.03
2017-11-22T01:38:40.119Z,5.70
2017-11-22T01:41:07.633Z,5.25
2017-11-22T01:43:35.164Z,5.65
2017-11-22T01:46:02.824Z,5.78
2017-11-22T01:48:30.380Z,5.25
2017-11-22T01:50:59.507Z,4.70
2017-11-22T01:53:27.256Z,4.72
2017-11-22T01:55:54.799Z,5.25
2017-11-22T01:58:22.311Z,4.25
2017-11-22T02:00:53.807Z,4.22
2017-11-22T02:03:21.366Z,5.28
2017-11-22T02:05:48.875Z,4.10
2017-11-22T02:08:16.568Z,4.20
2017-11-22T02:10:44.079Z,4.25
2017-11-22T02:13:11.587Z,5.72
2017-11-22T02:15:39.182Z,4.50
2017-11-22T02:18:06.726Z,4.72
2017-11-22T02:20:34.303Z,5.05
2017-11-22T02:23:02.554Z,4.62
2017-11-22T02:25:30.068Z,4.22
2017-11-22T02:27:57.579Z,4.60
2017-11-22T02:30:25.131Z,4.62
2017-11-22T02:32:52.996Z,4.10
2017-11-22T02:35:20.508Z,5.28
2017-11-22T02:37:48.042Z,4.05
2017-11-22T02:40:15.567Z,4.37
2017-11-22T02:42:43.100Z,5.28
2017-11-22T02:45:10.656Z,4.25
2017-11-22T02:47:38.163Z,4.97
2017-11-22T02:50:05.708Z,4.20
2017-11-22T02:52:33.448Z,4.43
2017-11-22T02:55:00.961Z,4.60
2017-11-22T02:57:28.491Z,5.05
2017-11-22T02:59:56.247Z,4.78
2017-11-22T03:02:23.760Z,4.82
2017-11-22T03:04:51.279Z,4.35
2017-11-22T03:07:19.208Z,4.03
2017-11-22T03:09:46.716Z,5.55
2017-11-22T03:12:14.231Z,5.30
2017-11-22T03:14:42.055Z,4.30
2017-11-22T03:17:09.558Z,4.93
2017-11-22T03:19:37.071Z,5.55
2017-11-22T03:22:04.791Z,5.03
2017-11-22T03:24:32.300Z,5.10
2017-11-22T03:26:59.828Z,6.00
2017-11-22T03:29:27.647Z,5.03
2017-11-22T03:31:55.163Z,4.65
2017-11-22T03:34:22.677Z,3.35
2017-11-22T03:36:50.249Z,4.53
2017-11-22T03:39:17.763Z,4.47
2017-11-22T03:41:45.284Z,3.28
2017-11-22T03:44:13.028Z,3.03
2017-11-22T03:46:40.608Z,4.55
2017-11-22T03:49:08.146Z,4.28
2017-11-22T03:51:41.410Z,3.95
2017-11-22T03:54:08.912Z,2.85
2017-11-22T03:56:36.561Z,3.72
2017-11-22T03:59:04.426Z,4.28
2017-11-22T04:01:46.647Z,3.37
2017-11-22T04:04:16.925Z,4.30
2017-11-22T04:06:44.434Z,3.47
2017-11-22T04:09:11.976Z,3.97
2017-11-22T04:11:39.711Z,3.20
2017-11-22T04:14:07.224Z,3.40
2017-11-22T04:16:34.730Z,3.80
2017-11-22T04:19:08.039Z,3.55
2017-11-22T04:21:35.700Z,3.00
2017-11-22T04:24:03.213Z,5.00
2017-11-22T04:26:30.755Z,3.97
2017-11-22T04:28:58.281Z,3.70
2017-11-22T04:31:25.797Z,3.67
2017-11-22T04:33:53.346Z,4.60
2017-11-22T04:36:20.858Z,5.00
2017-11-22T04:38:48.437Z,5.00
2017-11-22T04:41:15.979Z,4.35
2017-11-22T04:43:43.526Z,6.50
2017-11-22T04:46:11.047Z,12.37
2017-11-22T04:48:38.631Z,9.60
2017-11-22T04:51:06.206Z,4.90
2017-11-22T04:53:33.728Z,4.80
2017-11-22T04:56:01.604Z,5.37
2017-11-22T04:58:29.115Z,3.70
2017-11-22T05:00:56.646Z,4.47
2017-11-22T05:03:24.305Z,4.40
2017-11-22T05:05:52.595Z,4.50
2017-11-22T05:08:20.112Z,4.53
2017-11-22T05:10:47.774Z,4.15
2017-11-22T05:13:15.288Z,7.20
2017-11-22T05:15:42.805Z,6.75
2017-11-22T05:18:10.563Z,5.68
2017-11-22T05:20:38.071Z,5.15
2017-11-22T05:23:05.598Z,5.12
2017-11-22T05:25:33.342Z,5.60
2017-11-22T05:28:00.852Z,5.28
2017-11-22T05:30:28.362Z,5.72
2017-11-22T05:32:56.260Z,5.43
2017-11-22T05:35:23.804Z,5.43
2017-11-22T05:37:51.312Z,3.40
2017-11-22T05:40:18.855Z,3.80
2017-11-22T05:42:46.378Z,5.40
2017-11-22T05:45:13.891Z,6.40
2017-11-22T05:47:41.702Z,8.20
2017-11-22T05:50:09.273Z,5.70
2017-11-22T05:52:36.820Z,5.80
2017-11-22T05:55:04.360Z,6.00
2017-11-22T05:57:31.882Z,6.95
2017-11-22T05:59:59.392Z,5.35
2017-11-22T06:02:27.337Z,6.28
2017-11-22T06:04:54.851Z,7.35
2017-11-22T06:07:22.363Z,7.30
2017-11-22T06:09:51.064Z,8.52
2017-11-22T06:12:18.622Z,9.27
2017-11-22T06:14:46.137Z,12.45
2017-11-22T06:17:14.050Z,15.98
2017-11-22T06:19:41.628Z,12.63
2017-11-22T06:22:09.172Z,13.02
2017-11-22T06:24:36.932Z,11.40
2017-11-22T06:27:04.453Z,8.98
2017-11-22T06:29:31.971Z,10.50
2017-11-22T06:31:59.799Z,10.80
2017-11-22T06:34:27.474Z,11.55
2017-11-22T06:36:55.033Z,12.07
2017-11-22T06:39:24.540Z,12.50
2017-11-22T06:41:52.109Z,12.73
2017-11-22T06:44:19.674Z,13.13
2017-11-22T06:46:47.222Z,12.52
2017-11-22T06:49:14.774Z,10.82
2017-11-22T06:51:42.284Z,9.45
2017-11-22T06:54:10.077Z,8.65
2017-11-22T06:56:37.587Z,9.15
2017-11-22T06:59:05.113Z,8.45
2017-11-22T07:01:32.979Z,7.82
2017-11-22T07:04:00.479Z,8.57
2017-11-22T07:06:27.995Z,9.57
2017-11-22T07:08:55.968Z,7.62
2017-11-22T07:11:23.523Z,11.35
2017-11-22T07:13:51.031Z,9.82
2017-11-22T07:16:24.888Z,9.40
2017-11-22T07:18:52.411Z,9.18
2017-11-22T07:21:19.933Z,9.30
2017-11-22T07:23:47.573Z,9.85
2017-11-22T07:26:15.617Z,10.02
2017-11-22T07:28:43.144Z,10.80
2017-11-22T07:31:10.735Z,11.25
2017-11-22T07:33:38.247Z,13.85
2017-11-22T07:36:11.299Z,11.77
2017-11-22T07:38:38.811Z,9.70
2017-11-22T07:41:07.358Z,9.35
2017-11-22T07:43:35.183Z,7.87
2017-11-22T07:46:02.691Z,8.20
2017-11-22T07:48:30.221Z,7.82
2017-11-22T07:54:01.899Z,7.90
2017-11-22T07:56:29.659Z,8.60
2017-11-22T07:58:57.177Z,10.18
2017-11-22T08:01:24.779Z,12.18
2017-11-22T08:03:58.173Z,7.97
2017-11-22T08:06:25.682Z,7.62
2017-11-22T08:08:53.192Z,6.90
2017-11-22T08:11:21.694Z,6.78
2017-11-22T08:13:49.229Z,7.55
2017-11-22T08:16:16.846Z,8.43
2017-11-22T08:18:44.402Z,7.90
2017-11-22T08:21:11.920Z,6.60
2017-11-22T08:23:39.466Z,6.60
2017-11-22T08:26:07.024Z,5.68
2017-11-22T08:28:34.544Z,5.03
2017-11-22T08:31:02.062Z,5.12
2017-11-22T08:33:30.430Z,5.25
2017-11-22T08:35:57.980Z,5.37
2017-11-22T08:38:25.537Z,3.80
2017-11-22T08:40:53.202Z,4.40
2017-11-22T08:43:26.405Z,3.47
2017-11-22T08:45:54.155Z,4.47
2017-11-22T08:48:21.728Z,5.43
2017-11-22T08:50:49.265Z,4.68
2017-11-22T08:53:16.831Z,5.07
2017-11-22T08:55:50.038Z,5.03
2017-11-22T08:58:17.591Z,4.55
2017-11-22T09:00:45.139Z,4.30
2017-11-22T09:03:15.447Z,5.37
2017-11-22T09:05:49.055Z,3.97
2017-11-22T09:08:16.631Z,4.78
2017-11-22T09:10:44.185Z,4.20
2017-11-22T09:13:17.380Z,4.95
2017-11-22T09:15:44.932Z,3.63
2017-11-22T09:18:13.198Z,5.17
2017-11-22T09:20:40.758Z,3.80
2017-11-22T09:23:08.331Z,5.47
2017-11-22T09:25:36.755Z,4.20
2017-11-22T09:28:04.382Z,5.47
2017-11-22T09:30:31.934Z,4.13
2017-11-22T09:33:14.415Z,4.20
2017-11-22T09:35:42.403Z,4.20
2017-11-22T09:38:09.981Z,4.00
2017-11-22T09:40:37.547Z,4.00
2017-11-22T09:43:05.075Z,3.77
2017-11-22T09:45:32.595Z,4.40
2017-11-22T09:48:00.314Z,4.00
2017-11-22T09:50:28.275Z,4.10
2017-11-22T09:52:55.791Z,4.20
2017-11-22T09:55:23.389Z,3.97
2017-11-22T09:57:50.904Z,4.00
2017-11-22T10:00:18.427Z,3.43
2017-11-22T10:02:46.343Z,4.20
2017-11-22T10:05:13.863Z,3.43
2017-11-22T10:07:41.389Z,5.63
2017-11-22T10:10:08.962Z,4.30
2017-11-22T10:12:36.507Z,3.63
2017-11-22T10:15:04.066Z,2.50
2017-11-22T10:17:32.559Z,5.90
2017-11-22T10:20:03.904Z,4.33
2017-11-22T10:22:37.088Z,3.40
2017-11-22T10:25:10.544Z,3.67
2017-11-22T10:27:48.691Z,3.10
2017-11-22T10:30:17.273Z,4.30
2017-11-22T10:32:49.658Z,3.97
2017-11-22T10:35:17.206Z,3.23
2017-11-22T10:37:44.780Z,3.73
2017-11-22T10:40:12.327Z,3.80
2017-11-22T10:42:39.834Z,3.57
2017-11-22T10:45:07.420Z,2.87
2017-11-22T10:47:38.994Z,3.20
2017-11-22T10:50:10.241Z,3.67
2017-11-22T10:52:42.221Z,3.13
2017-11-22T10:57:52.049Z,2.77
2017-11-22T11:00:19.788Z,2.90
2017-11-22T11:02:49.536Z,3.30
2017-11-22T11:05:20.372Z,3.13
2017-11-22T11:07:49.476Z,3.20
2017-11-22T11:10:17.748Z,3.00
2017-11-22T11:12:46.230Z,3.13
2017-11-22T11:15:16.556Z,2.57
2017-11-22T11:17:44.225Z,2.93
2017-11-22T11:20:21.667Z,2.80
2017-11-22T11:22:52.543Z,2.40
2017-11-22T11:25:28.255Z,2.77
2017-11-22T11:27:56.868Z,3.57
2017-11-22T11:30:36.305Z,3.10
2017-11-22T11:33:06.842Z,3.40
2017-11-22T11:35:47.003Z,3.13
2017-11-22T11:38:15.363Z,4.20
2017-11-22T11:40:44.779Z,2.57
2017-11-22T11:43:17.261Z,2.80
2017-11-22T11:45:46.398Z,2.20
2017-11-22T11:48:16.364Z,2.87
2017-11-22T11:50:46.480Z,2.90
2017-11-22T11:53:14.246Z,3.07
2017-11-22T11:55:44.977Z,2.40
2017-11-22T11:58:14.926Z,3.10
2017-11-22T12:00:42.478Z,2.30
2017-11-22T12:03:10.295Z,2.70
2017-11-22T12:05:37.811Z,3.10
2017-11-22T12:08:05.327Z,2.80
2017-11-22T12:10:33.002Z,2.80
2017-11-22T12:13:00.563Z,2.87
2017-11-22T12:15:28.129Z,3.87
2017-11-22T12:17:55.880Z,3.20
2017-11-22T12:20:23.398Z,11.60
2017-11-22T12:22:57.191Z,9.40
2017-11-22T12:25:24.703Z,4.63
2017-11-22T12:27:54.200Z,10.87
2017-11-22T12:30:21.767Z,9.83
2017-11-22T12:32:49.547Z,10.77
2017-11-22T12:35:17.089Z,12.20
2017-11-22T12:37:44.827Z,10.90
2017-11-22T12:40:12.344Z,9.60
2017-11-22T12:42:39.855Z,10.37
2017-11-22T12:45:07.528Z,9.80
2017-11-22T12:47:35.601Z,12.70
2017-11-22T12:50:03.159Z,11.83
2017-11-22T12:52:30.742Z,12.93
2017-11-22T12:54:58.259Z,13.60
2017-11-22T12:57:25.770Z,12.63
2017-11-22T12:59:53.497Z,12.13
2017-11-22T13:02:21.073Z,10.33
2017-11-22T13:04:48.616Z,10.97
2017-11-22T13:07:16.255Z,11.80
2017-11-22T13:09:43.777Z,10.80
2017-11-22T13:12:11.304Z,10.70
2017-11-22T13:14:38.867Z,10.27
2017-11-22T13:17:06.396Z,10.07
2017-11-22T13:19:33.917Z,11.60
2017-11-22T13:22:01.629Z,10.10
2017-11-22T13:24:29.142Z,11.90
2017-11-22T13:26:56.665Z,11.37
2017-11-22T13:29:24.390Z,12.10
2017-11-22T13:31:51.902Z,9.93
2017-11-22T13:34:19.424Z,10.37
2017-11-22T13:36:47.089Z,10.73
2017-11-22T13:39:14.649Z,9.77
2017-11-22T13:41:45.993Z,9.37
2017-11-22T13:44:13.770Z,15.33
2017-11-22T13:46:41.337Z,11.00
2017-11-22T13:49:08.854Z,10.43
2017-11-22T13:51:36.539Z,10.00
2017-11-22T13:54:04.059Z,11.17
2017-11-22T13:56:31.586Z,9.37
2017-11-22T13:58:59.130Z,11.30
2017-11-22T14:01:26.672Z,11.00
2017-11-22T14:03:54.232Z,11.10
2017-11-22T14:06:21.997Z,11.40
2017-11-22T14:08:49.556Z,13.43
2017-11-22T14:11:17.115Z,14.97
2017-11-22T14:13:45.083Z,15.83
2017-11-22T14:16:12.643Z,12.57
2017-11-22T14:18:40.202Z,12.07
2017-11-22T14:21:07.760Z,12.80
2017-11-22T14:23:35.319Z,14.13
2017-11-22T14:26:02.882Z,12.50
2017-11-22T14:28:30.447Z,13.87
2017-11-22T14:30:57.998Z,12.40
2017-11-22T14:33:25.555Z,13.70
2017-11-22T14:35:53.135Z,14.07
2017-11-22T14:38:20.674Z,14.70
2017-11-22T14:40:48.233Z,14.93
2017-11-22T14:43:15.926Z,13.83
2017-11-22T14:45:43.435Z,17.57
2017-11-22T14:48:10.963Z,15.00
2017-11-22T14:50:38.685Z,13.47
2017-11-22T14:53:06.644Z,14.27
2017-11-22T14:55:34.203Z,15.50
2017-11-22T14:58:01.779Z,15.13
2017-11-22T15:00:29.321Z,16.10
2017-11-22T15:02:56.967Z,15.93
2017-11-22T15:05:24.849Z,14.83
2017-11-22T15:07:52.511Z,15.97
2017-11-22T15:10:20.171Z,14.10
2017-11-22T15:12:48.556Z,15.80
2017-11-22T15:15:16.136Z,14.87
2017-11-22T15:17:43.769Z,15.20
2017-11-22T15:20:11.742Z,14.67
2017-11-22T15:22:39.507Z,15.20
2017-11-22T15:25:07.802Z,14.60
2017-11-22T15:27:35.617Z,16.13
2017-11-22T15:30:03.312Z,15.20
2017-11-22T15:32:30.955Z,15.57
2017-11-22T15:34:58.730Z,16.73
2017-11-22T15:37:26.599Z,16.80
2017-11-22T15:39:54.147Z,16.17
2017-11-22T15:42:21.899Z,18.67
2017-11-22T15:44:49.419Z,18.20
2017-11-22T15:47:16.944Z,15.40
2017-11-22T15:49:44.500Z,17.37
2017-11-22T15:52:12.044Z,20.00
2017-11-22T15:54:39.613Z,19.67
2017-11-22T15:57:07.175Z,18.77
2017-11-22T15:59:34.832Z,18.05
2017-11-22T16:02:02.392Z,17.08
2017-11-22T16:04:30.257Z,18.80
2017-11-22T16:06:58.024Z,18.48
2017-11-22T16:09:25.583Z,19.30
2017-11-22T16:11:53.142Z,21.05
2017-11-22T16:14:20.806Z,21.00
2017-11-22T16:16:48.364Z,18.52
2017-11-22T16:19:16.226Z,20.50
2017-11-22T16:21:43.786Z,18.50
2017-11-22T16:24:11.370Z,15.52
2017-11-22T16:26:39.317Z,15.32
2017-11-22T16:29:06.894Z,13.90
2017-11-22T16:31:34.432Z,13.15
2017-11-22T16:34:02.987Z,12.80
2017-11-22T16:36:30.686Z,11.65
2017-11-22T16:38:58.243Z,11.57
2017-11-22T16:41:26.101Z,11.98
2017-11-22T16:43:53.683Z,10.90
2017-11-22T16:46:21.632Z,10.23
2017-11-22T16:48:49.230Z,9.65
2017-11-22T16:51:16.943Z,9.18
2017-11-22T16:53:44.614Z,7.78
2017-11-22T16:56:12.599Z,8.60
2017-11-22T16:58:40.295Z,8.77
2017-11-22T17:01:07.912Z,9.05
2017-11-22T17:03:35.933Z,7.45
2017-11-22T17:06:03.638Z,6.93
2017-11-22T17:08:31.306Z,7.43
2017-11-22T17:10:59.139Z,8.38
2017-11-22T17:13:26.827Z,8.68
2017-11-22T17:15:54.587Z,9.05
2017-11-22T17:18:22.382Z,7.47
2017-11-22T17:20:50.155Z,8.55
2017-11-22T17:23:17.920Z,6.68
2017-11-22T17:25:45.647Z,4.95
2017-11-22T17:28:13.171Z,6.10
2017-11-22T17:30:40.970Z,5.72
2017-11-22T17:33:08.559Z,6.78
2017-11-22T17:35:36.522Z,5.70
2017-11-22T17:38:04.160Z,4.78
2017-11-22T17:40:32.230Z,5.62
2017-11-22T17:42:59.891Z,5.80
2017-11-22T17:45:27.598Z,5.00
2017-11-22T17:47:55.323Z,5.07
2017-11-22T17:50:24.422Z,5.85
2017-11-22T17:52:51.970Z,6.40
2017-11-22T17:55:24.651Z,5.80
2017-11-22T17:57:52.312Z,5.65
2017-11-22T18:00:19.972Z,5.60
2017-11-22T18:02:47.755Z,4.93
2017-11-22T18:05:15.921Z,5.75
2017-11-22T18:07:43.647Z,5.25
2017-11-22T18:10:11.176Z,4.93
2017-11-22T18:12:38.695Z,5.90
2017-11-22T18:15:06.244Z,4.90
2017-11-22T18:17:33.809Z,13.98
2017-11-22T18:20:01.367Z,9.65
2017-11-22T18:22:29.131Z,6.15
2017-11-22T18:24:56.693Z,6.60
2017-11-22T18:27:24.359Z,6.40
2017-11-22T18:29:52.629Z,5.10
2017-11-22T18:32:20.227Z,4.57
2017-11-22T18:34:47.750Z,5.15
2017-11-22T18:37:17.490Z,5.05
2017-11-22T18:39:45.124Z,5.60
2017-11-22T18:42:12.885Z,5.45
2017-11-22T18:44:40.855Z,6.32
2017-11-22T18:47:08.731Z,6.32
2017-11-22T18:49:37.610Z,6.78
2017-11-22T18:52:05.374Z,5.95
2017-11-22T18:54:33.133Z,5.10
2017-11-22T18:57:01.011Z,4.68
2017-11-22T18:59:29.380Z,5.25
2017-11-22T19:01:58.072Z,4.57
2017-11-22T19:04:25.845Z,5.28
2017-11-22T19:06:53.804Z,4.20
2017-11-22T19:09:21.644Z,5.40
2017-11-22T19:11:49.531Z,5.78
2017-11-22T19:14:17.805Z,5.28
2017-11-22T19:16:46.213Z,5.65
2017-11-22T19:19:13.785Z,4.95
2017-11-22T19:21:41.515Z,4.72
2017-11-22T19:24:09.680Z,4.10
2017-11-22T19:26:37.444Z,5.93
2017-11-22T19:29:05.317Z,4.60
2017-11-22T19:31:32.897Z,5.82
2017-11-22T19:34:00.625Z,4.55
2017-11-22T19:36:28.636Z,5.00
2017-11-22T19:38:56.368Z,5.03
2017-11-22T19:41:24.027Z,4.40
2017-11-22T19:43:52.055Z,4.07
2017-11-22T19:46:19.720Z,4.68
2017-11-22T19:48:49.673Z,4.40
2017-11-22T19:51:17.869Z,5.45
2017-11-22T19:53:46.126Z,4.53
2017-11-22T19:56:14.762Z,5.10
2017-11-22T19:58:42.895Z,4.60
2017-11-22T20:01:10.748Z,4.32
2017-11-22T20:03:38.511Z,4.93
2017-11-22T20:06:07.354Z,4.68
2017-11-22T20:08:41.569Z,4.72
2017-11-22T20:11:09.236Z,5.25
2017-11-22T20:13:37.041Z,5.05
2017-11-22T20:16:05.723Z,5.25
2017-11-22T20:18:33.671Z,5.25
2017-11-22T20:21:01.357Z,5.28
2017-11-22T20:23:29.223Z,4.57
2017-11-22T20:25:57.494Z,4.75
2017-11-22T20:28:25.267Z,5.07
2017-11-22T20:30:53.046Z,4.12
2017-11-22T20:33:21.100Z,4.00
2017-11-22T20:35:48.966Z,4.95
2017-11-22T20:38:16.550Z,4.62
2017-11-22T20:40:44.704Z,4.03
2017-11-22T20:43:12.984Z,4.82
2017-11-22T20:45:40.532Z,4.22
2017-11-22T20:48:08.604Z,5.80
2017-11-22T20:50:36.192Z,4.18
2017-11-22T20:53:03.945Z,4.93
2017-11-22T20:55:32.631Z,4.40
2017-11-22T20:58:00.378Z,5.60
2017-11-22T21:00:28.244Z,5.00
2017-11-22T21:02:56.109Z,4.22
2017-11-22T21:05:24.384Z,5.37
2017-11-22T21:07:52.674Z,4.75
2017-11-22T21:10:20.659Z,4.35
2017-11-22T21:12:48.495Z,3.72
2017-11-22T21:15:16.261Z,3.65
2017-11-22T21:17:44.537Z,3.85
2017-11-22T21:20:12.402Z,3.70
2017-11-22T21:22:40.269Z,3.72
2017-11-22T21:25:08.451Z,5.18
2017-11-22T21:27:36.081Z,4.30
2017-11-22T21:30:03.876Z,4.35
2017-11-22T21:32:32.154Z,4.90
2017-11-22T21:34:59.905Z,4.22
2017-11-22T21:37:27.679Z,3.72
2017-11-22T21:39:56.062Z,4.10
2017-11-22T21:42:23.812Z,4.25
2017-11-22T21:44:51.475Z,3.97
2017-11-22T21:47:19.316Z,4.80
2017-11-22T21:49:46.823Z,3.85
2017-11-22T21:52:14.398Z,4.05
2017-11-22T21:54:42.530Z,3.55
2017-11-22T21:57:10.147Z,4.43
2017-11-22T21:59:37.687Z,4.18
2017-11-22T22:02:05.521Z,4.53
2017-11-22T22:04:33.089Z,4.28
2017-11-22T22:07:00.633Z,3.67
2017-11-22T22:09:28.193Z,3.42
2017-11-22T22:11:55.698Z,4.35
2017-11-22T22:14:23.208Z,4.10
2017-11-22T22:16:50.751Z,4.35
2017-11-22T22:19:18.451Z,3.60
2017-11-22T22:21:45.966Z,3.72
2017-11-22T22:24:13.791Z,3.55
2017-11-22T22:26:41.308Z,3.62
2017-11-22T22:29:08.828Z,5.00
2017-11-22T22:31:36.382Z,4.00
2017-11-22T22:34:03.892Z,3.20
2017-11-22T22:36:31.450Z,4.65
2017-11-22T22:38:59.018Z,3.92
2017-11-22T22:41:26.529Z,3.65
2017-11-22T22:43:54.046Z,4.05
2017-11-22T22:46:21.590Z,4.40
2017-11-22T22:48:49.137Z,4.28
2017-11-22T22:51:16.697Z,4.68
2017-11-22T22:53:44.440Z,3.80
2017-11-22T22:56:11.948Z,4.43
2017-11-22T22:58:39.454Z,3.70
2017-11-22T23:01:07.036Z,4.70
2017-11-22T23:03:34.595Z,2.85
2017-11-22T23:06:03.282Z,4.03
2017-11-22T23:08:31.603Z,4.10
2017-11-22T23:11:00.327Z,4.25
2017-11-22T23:13:29.337Z,3.95
2017-11-22T23:15:57.402Z,3.90
2017-11-22T23:18:25.786Z,3.40
2017-11-22T23:20:53.353Z,4.15
2017-11-22T23:23:21.740Z,3.78
2017-11-22T23:25:49.282Z,3.70
2017-11-22T23:28:16.949Z,3.17
2017-11-22T23:30:45.157Z,4.07
2017-11-22T23:33:12.752Z,4.28
2017-11-22T23:35:43.864Z,4.47
2017-11-22T23:38:11.431Z,4.55
2017-11-22T23:40:38.935Z,3.83
2017-11-22T23:43:07.700Z,5.95
2017-11-22T23:45:35.215Z,3.10
2017-11-22T23:48:02.742Z,3.97
2017-11-22T23:50:30.711Z,4.53
2017-11-22T23:52:58.479Z,3.50
2017-11-22T23:55:26.034Z,3.95
2017-11-22T23:57:53.797Z,3.80
